Wauregan, Connecticut
Current Conditions -  °F | °C
As of 8:52 PM on Monday 24 Nov 2014 (Local Time) from KIJD Reporting Station
Clear Clear  
Wind Chill: 18°   Ceiling: Unl
Heat Index: 18°   Visibility: 10mi
Dew Point: 12°   Wind: 13mph
Humidity: 70%   Direction: 220°SW
Pressure: 29.69"   Gusts: 21mph
Location:  41.75°N, 71.91°W
Report Text: KIJD 250152Z AUTO 22011G18KT 10SM CLR 18/12 A2969 RMK AO2 SLP053 T01780122
Loading
Personal Weather Stations






























Interactive Weather Map New forecast layout! Learn more

10-Day Weather Forecast

Advertisements
Track Severe Weather on mobile